createdAt,value
2017-09-18T00:00:10.888Z,1002.37
2017-09-18T00:01:10.878Z,1002.39
2017-09-18T00:02:10.887Z,1002.34
2017-09-18T00:03:10.866Z,1002.35
2017-09-18T00:04:10.860Z,1002.30
2017-09-18T00:05:10.851Z,1002.38
2017-09-18T00:06:10.843Z,1002.34
2017-09-18T00:07:10.835Z,1002.36
2017-09-18T00:08:10.829Z,1002.37
2017-09-18T00:09:10.821Z,1002.35
2017-09-18T00:10:10.813Z,1002.37
2017-09-18T00:11:10.808Z,1002.33
2017-09-18T00:12:10.797Z,1002.37
2017-09-18T00:13:10.791Z,1002.34
2017-09-18T00:14:10.782Z,1002.37
2017-09-18T00:15:10.778Z,1002.34
2017-09-18T00:16:10.767Z,1002.33
2017-09-18T00:17:10.760Z,1002.32
2017-09-18T00:18:10.750Z,1002.33
2017-09-18T00:19:10.743Z,1002.32
2017-09-18T00:20:10.736Z,1002.30
2017-09-18T00:21:10.728Z,1002.33
2017-09-18T00:22:10.721Z,1002.31
2017-09-18T00:23:10.713Z,1002.31
2017-09-18T00:24:10.705Z,1002.28
2017-09-18T00:25:10.697Z,1002.27
2017-09-18T00:26:10.690Z,1002.27
2017-09-18T00:27:10.683Z,1002.27
2017-09-18T00:28:10.677Z,1002.26
2017-09-18T00:29:10.666Z,1002.27
2017-09-18T00:30:10.660Z,1002.25
2017-09-18T00:31:10.651Z,1002.30
2017-09-18T00:32:10.645Z,1002.25
2017-09-18T00:33:10.636Z,1002.23
2017-09-18T00:34:10.629Z,1002.24
2017-09-18T00:35:10.620Z,1002.20
2017-09-18T00:36:10.613Z,1002.24
2017-09-18T00:37:10.604Z,1002.25
2017-09-18T00:38:10.596Z,1002.27
2017-09-18T00:39:10.589Z,1002.23
2017-09-18T00:40:10.582Z,1002.21
2017-09-18T00:41:10.574Z,1002.23
2017-09-18T00:42:10.566Z,1002.24
2017-09-18T00:43:10.586Z,1002.26
2017-09-18T00:44:10.552Z,1002.26
2017-09-18T00:45:10.541Z,1002.28
2017-09-18T00:46:10.534Z,1002.25
2017-09-18T00:47:10.525Z,1002.28
2017-09-18T00:48:10.518Z,1002.26
2017-09-18T00:49:10.513Z,1002.29
2017-09-18T00:50:10.502Z,1002.27
2017-09-18T00:51:10.495Z,1002.32
2017-09-18T00:52:10.487Z,1002.28
2017-09-18T00:53:10.479Z,1002.29
2017-09-18T00:54:10.474Z,1002.33
2017-09-18T00:55:10.463Z,1002.30
2017-09-18T00:56:10.456Z,1002.30
2017-09-18T00:57:10.447Z,1002.27
2017-09-18T00:58:10.442Z,1002.26
2017-09-18T00:59:10.434Z,1002.28
2017-09-18T01:00:10.426Z,1002.25
2017-09-18T01:01:10.417Z,1002.24
2017-09-18T01:02:10.408Z,1002.28
2017-09-18T01:03:10.400Z,1002.28
2017-09-18T01:04:10.393Z,1002.25
2017-09-18T01:05:10.384Z,1002.31
2017-09-18T01:06:10.376Z,1002.26
2017-09-18T01:07:10.369Z,1002.32
2017-09-18T01:08:10.362Z,1002.28
2017-09-18T01:09:10.353Z,1002.27
2017-09-18T01:10:10.347Z,1002.28
2017-09-18T01:11:10.338Z,1002.24
2017-09-18T01:12:10.331Z,1002.25
2017-09-18T01:13:10.324Z,1002.22
2017-09-18T01:14:10.315Z,1002.22
2017-09-18T01:15:10.308Z,1002.23
2017-09-18T01:16:10.300Z,1002.23
2017-09-18T01:17:10.291Z,1002.22
2017-09-18T01:18:10.284Z,1002.19
2017-09-18T01:19:10.276Z,1002.16
2017-09-18T01:20:10.268Z,1002.20
2017-09-18T01:21:10.260Z,1002.16
2017-09-18T01:22:10.253Z,1002.16
2017-09-18T01:23:10.245Z,1002.17
2017-09-18T01:24:10.237Z,1002.20
2017-09-18T01:25:10.229Z,1002.21
2017-09-18T01:26:10.252Z,1002.22
2017-09-18T01:27:10.214Z,1002.21
2017-09-18T01:28:10.207Z,1002.19
2017-09-18T01:29:10.198Z,1002.18
2017-09-18T01:30:10.191Z,1002.19
2017-09-18T01:31:10.184Z,1002.17
2017-09-18T01:32:10.176Z,1002.18
2017-09-18T01:33:10.167Z,1002.17
2017-09-18T01:34:10.159Z,1002.18
2017-09-18T01:35:10.153Z,1002.16
2017-09-18T01:36:10.143Z,1002.21
2017-09-18T01:37:10.136Z,1002.20
2017-09-18T01:38:10.129Z,1002.17
2017-09-18T01:39:10.120Z,1002.15
2017-09-18T01:40:10.115Z,1002.15
2017-09-18T01:41:10.104Z,1002.14
2017-09-18T01:42:10.097Z,1002.18
2017-09-18T01:43:10.090Z,1002.14
2017-09-18T01:44:10.084Z,1002.21
2017-09-18T01:45:10.075Z,1002.15
2017-09-18T01:46:10.067Z,1002.14
2017-09-18T01:47:10.060Z,1002.12
2017-09-18T01:48:10.053Z,1002.14
2017-09-18T01:49:10.043Z,1002.17
2017-09-18T01:50:10.038Z,1002.19
2017-09-18T01:51:10.028Z,1002.22
2017-09-18T01:52:10.021Z,1002.26
2017-09-18T01:53:10.013Z,1002.22
2017-09-18T01:54:10.006Z,1002.22
2017-09-18T01:55:09.998Z,1002.26
2017-09-18T01:56:09.991Z,1002.26
2017-09-18T01:57:10.008Z,1002.24
2017-09-18T01:58:09.975Z,1002.24
2017-09-18T01:59:09.969Z,1002.22
2017-09-18T02:00:09.961Z,1002.22
2017-09-18T02:01:09.953Z,1002.25
2017-09-18T02:02:09.947Z,1002.25
2017-09-18T02:03:09.937Z,1002.29
2017-09-18T02:04:09.931Z,1002.25
2017-09-18T02:05:09.923Z,1002.25
2017-09-18T02:06:09.915Z,1002.24
2017-09-18T02:07:09.908Z,1002.26
2017-09-18T02:08:09.901Z,1002.23
2017-09-18T02:09:09.892Z,1002.27
2017-09-18T02:10:09.886Z,1002.29
2017-09-18T02:11:09.879Z,1002.31
2017-09-18T02:12:09.874Z,1002.33
2017-09-18T02:13:09.863Z,1002.30
2017-09-18T02:14:09.855Z,1002.29
2017-09-18T02:15:09.848Z,1002.33
2017-09-18T02:16:09.841Z,1002.29
2017-09-18T02:17:09.834Z,1002.28
2017-09-18T02:18:09.827Z,1002.24
2017-09-18T02:19:09.819Z,1002.23
2017-09-18T02:20:09.811Z,1002.22
2017-09-18T02:21:09.804Z,1002.24
2017-09-18T02:22:09.796Z,1002.25
2017-09-18T02:23:09.789Z,1002.30
2017-09-18T02:24:09.783Z,1002.31
2017-09-18T02:25:09.773Z,1002.29
2017-09-18T02:26:09.768Z,1002.31
2017-09-18T02:27:09.760Z,1002.34
2017-09-18T02:28:09.754Z,1002.34
2017-09-18T02:29:09.746Z,1002.29
2017-09-18T02:30:09.739Z,1002.34
2017-09-18T02:31:09.731Z,1002.33
2017-09-18T02:32:09.724Z,1002.36
2017-09-18T02:33:09.718Z,1002.34
2017-09-18T02:34:09.713Z,1002.33
2017-09-18T02:35:09.704Z,1002.42
2017-09-18T02:36:09.696Z,1002.39
2017-09-18T02:37:09.687Z,1002.41
2017-09-18T02:38:09.681Z,1002.41
2017-09-18T02:39:09.677Z,1002.38
2017-09-18T02:40:09.667Z,1002.38
2017-09-18T02:41:09.659Z,1002.38
2017-09-18T02:42:09.651Z,1002.39
2017-09-18T02:43:09.646Z,1002.42
2017-09-18T02:44:09.640Z,1002.41
2017-09-18T02:45:09.630Z,1002.43
2017-09-18T02:46:09.623Z,1002.40
2017-09-18T02:47:09.616Z,1002.43
2017-09-18T02:48:09.611Z,1002.40
2017-09-18T02:49:09.600Z,1002.41
2017-09-18T02:50:09.594Z,1002.41
2017-09-18T02:51:09.588Z,1002.41
2017-09-18T02:52:09.580Z,1002.40
2017-09-18T02:53:09.574Z,1002.38
2017-09-18T02:54:09.566Z,1002.35
2017-09-18T02:55:09.559Z,1002.40
2017-09-18T02:56:09.556Z,1002.39
2017-09-18T02:57:09.545Z,1002.40
2017-09-18T02:58:09.539Z,1002.36
2017-09-18T02:59:09.531Z,1002.39
2017-09-18T03:00:09.528Z,1002.40
2017-09-18T03:01:09.517Z,1002.39
2017-09-18T03:02:09.509Z,1002.39
2017-09-18T03:03:09.504Z,1002.39
2017-09-18T03:04:09.496Z,1002.36
2017-09-18T03:05:09.494Z,1002.38
2017-09-18T03:06:09.482Z,1002.37
2017-09-18T03:07:09.476Z,1002.33
2017-09-18T03:08:09.472Z,1002.33
2017-09-18T03:09:09.462Z,1002.34
2017-09-18T03:10:09.454Z,1002.34
2017-09-18T03:11:09.448Z,1002.32
2017-09-18T03:12:09.440Z,1002.29
2017-09-18T03:13:09.438Z,1002.31
2017-09-18T03:14:09.433Z,1002.30
2017-09-18T03:15:09.420Z,1002.31
2017-09-18T03:16:09.413Z,1002.30
2017-09-18T03:17:09.405Z,1002.32
2017-09-18T03:18:09.399Z,1002.34
2017-09-18T03:19:09.392Z,1002.37
2017-09-18T03:20:09.385Z,1002.38
2017-09-18T03:21:09.379Z,1002.43
2017-09-18T03:22:09.371Z,1002.43
2017-09-18T03:23:09.369Z,1002.42
2017-09-18T03:24:09.359Z,1002.36
2017-09-18T03:25:09.351Z,1002.40
2017-09-18T03:26:09.344Z,1002.41
2017-09-18T03:27:09.338Z,1002.36
2017-09-18T03:28:09.330Z,1002.35
2017-09-18T03:29:09.323Z,1002.38
2017-09-18T03:30:09.319Z,1002.40
2017-09-18T03:31:09.311Z,1002.40
2017-09-18T03:32:09.305Z,1002.40
2017-09-18T03:33:09.296Z,1002.38
2017-09-18T03:34:09.291Z,1002.36
2017-09-18T03:35:09.284Z,1002.39
2017-09-18T03:36:09.278Z,1002.37
2017-09-18T03:37:09.269Z,1002.38
2017-09-18T03:38:09.262Z,1002.42
2017-09-18T03:39:09.257Z,1002.36
2017-09-18T03:40:09.250Z,1002.39
2017-09-18T03:41:09.242Z,1002.35
2017-09-18T03:42:09.237Z,1002.34
2017-09-18T03:43:09.229Z,1002.29
2017-09-18T03:44:09.223Z,1002.33
2017-09-18T03:45:09.214Z,1002.35
2017-09-18T03:46:09.210Z,1002.34
2017-09-18T03:47:09.202Z,1002.31
2017-09-18T03:48:09.196Z,1002.30
2017-09-18T03:49:09.188Z,1002.31
2017-09-18T03:50:09.182Z,1002.36
2017-09-18T03:51:09.175Z,1002.35
2017-09-18T03:52:09.171Z,1002.35
2017-09-18T03:53:09.161Z,1002.35
2017-09-18T03:54:09.155Z,1002.42
2017-09-18T03:55:09.149Z,1002.44
2017-09-18T03:56:09.142Z,1002.48
2017-09-18T03:57:09.136Z,1002.52
2017-09-18T03:58:09.130Z,1002.53
2017-09-18T03:59:09.124Z,1002.56
2017-09-18T04:00:09.116Z,1002.53
2017-09-18T04:01:09.109Z,1002.57
2017-09-18T04:02:09.103Z,1002.58
2017-09-18T04:03:09.096Z,1002.56
2017-09-18T04:04:09.090Z,1002.51
2017-09-18T04:05:09.082Z,1002.49
2017-09-18T04:06:09.079Z,1002.49
2017-09-18T04:07:09.070Z,1002.53
2017-09-18T04:08:09.063Z,1002.49
2017-09-18T04:09:09.056Z,1002.49
2017-09-18T04:10:09.050Z,1002.54
2017-09-18T04:11:09.044Z,1002.52
2017-09-18T04:12:09.036Z,1002.52
2017-09-18T04:13:09.029Z,1002.52
2017-09-18T04:14:09.024Z,1002.55
2017-09-18T04:15:09.019Z,1002.52
2017-09-18T04:16:09.010Z,1002.55
2017-09-18T04:17:09.002Z,1002.51
2017-09-18T04:18:08.998Z,1002.49
2017-09-18T04:19:08.990Z,1002.54
2017-09-18T04:20:08.984Z,1002.46
2017-09-18T04:21:08.977Z,1002.53
2017-09-18T04:22:08.972Z,1002.55
2017-09-18T04:23:08.964Z,1002.49
2017-09-18T04:24:08.959Z,1002.49
2017-09-18T04:25:08.950Z,1002.48
2017-09-18T04:26:08.944Z,1002.51
2017-09-18T04:27:08.937Z,1002.51
2017-09-18T04:28:08.931Z,1002.51
2017-09-18T04:29:08.925Z,1002.47
2017-09-18T04:30:08.918Z,1002.48
2017-09-18T04:31:08.911Z,1002.46
2017-09-18T04:32:08.905Z,1002.43
2017-09-18T04:33:08.898Z,1002.46
2017-09-18T04:34:08.893Z,1002.47
2017-09-18T04:35:08.886Z,1002.44
2017-09-18T04:36:08.880Z,1002.45
2017-09-18T04:37:08.872Z,1002.39
2017-09-18T04:38:08.866Z,1002.40
2017-09-18T04:39:08.860Z,1002.38
2017-09-18T04:40:08.853Z,1002.39
2017-09-18T04:41:08.846Z,1002.35
2017-09-18T04:42:08.840Z,1002.40
2017-09-18T04:43:08.834Z,1002.40
2017-09-18T04:44:08.827Z,1002.38
2017-09-18T04:45:08.820Z,1002.41
2017-09-18T04:46:08.815Z,1002.41
2017-09-18T04:47:08.807Z,1002.37
2017-09-18T04:48:08.801Z,1002.39
2017-09-18T04:49:08.793Z,1002.45
2017-09-18T04:50:08.788Z,1002.44
2017-09-18T04:51:08.783Z,1002.49
2017-09-18T04:52:08.775Z,1002.53
2017-09-18T04:53:08.769Z,1002.54
2017-09-18T04:54:08.763Z,1002.54
2017-09-18T04:55:08.757Z,1002.55
2017-09-18T04:56:08.749Z,1002.56
2017-09-18T04:57:08.742Z,1002.48
2017-09-18T04:58:08.735Z,1002.52
2017-09-18T04:59:08.730Z,1002.49
2017-09-18T05:00:08.723Z,1002.51
2017-09-18T05:01:08.718Z,1002.52
2017-09-18T05:02:08.711Z,1002.53
2017-09-18T05:03:08.703Z,1002.55
2017-09-18T05:04:08.697Z,1002.56
2017-09-18T05:05:08.690Z,1002.55
2017-09-18T05:06:08.690Z,1002.60
2017-09-18T05:07:08.678Z,1002.54
2017-09-18T05:08:08.673Z,1002.57
2017-09-18T05:09:08.670Z,1002.57
2017-09-18T05:10:08.658Z,1002.55
2017-09-18T05:11:08.653Z,1002.57
2017-09-18T05:12:08.646Z,1002.56
2017-09-18T05:13:08.640Z,1002.55
2017-09-18T05:14:08.633Z,1002.52
2017-09-18T05:15:08.628Z,1002.55
2017-09-18T05:16:08.622Z,1002.53
2017-09-18T05:17:08.615Z,1002.50
2017-09-18T05:18:08.608Z,1002.50
2017-09-18T05:19:08.602Z,1002.53
2017-09-18T05:20:08.596Z,1002.55
2017-09-18T05:21:08.588Z,1002.60
2017-09-18T05:22:08.583Z,1002.54
2017-09-18T05:23:08.578Z,1002.57
2017-09-18T05:24:08.572Z,1002.56
2017-09-18T05:25:08.563Z,1002.56
2017-09-18T05:26:08.558Z,1002.55
2017-09-18T05:27:08.551Z,1002.59
2017-09-18T05:28:08.546Z,1002.63
2017-09-18T05:29:08.538Z,1002.62
2017-09-18T05:30:08.533Z,1002.59
2017-09-18T05:31:08.527Z,1002.57
2017-09-18T05:32:08.521Z,1002.60
2017-09-18T05:33:08.514Z,1002.62
2017-09-18T05:34:08.507Z,1002.61
2017-09-18T05:35:08.500Z,1002.66
2017-09-18T05:36:08.498Z,1002.65
2017-09-18T05:37:08.487Z,1002.68
2017-09-18T05:38:08.482Z,1002.68
2017-09-18T05:39:08.476Z,1002.67
2017-09-18T05:40:08.469Z,1002.66
2017-09-18T05:41:08.462Z,1002.68
2017-09-18T05:42:08.460Z,1002.67
2017-09-18T05:43:08.450Z,1002.67
2017-09-18T05:44:08.445Z,1002.62
2017-09-18T05:45:08.437Z,1002.66
2017-09-18T05:46:08.431Z,1002.65
2017-09-18T05:47:08.426Z,1002.64
2017-09-18T05:48:08.419Z,1002.67
2017-09-18T05:49:08.414Z,1002.71
2017-09-18T05:50:08.406Z,1002.67
2017-09-18T05:51:08.401Z,1002.68
2017-09-18T05:52:08.395Z,1002.67
2017-09-18T05:53:08.387Z,1002.62
2017-09-18T05:54:08.381Z,1002.67
2017-09-18T05:55:08.375Z,1002.68
2017-09-18T05:56:08.371Z,1002.67
2017-09-18T05:57:08.362Z,1002.67
2017-09-18T05:58:08.356Z,1002.66
2017-09-18T05:59:08.352Z,1002.67
2017-09-18T06:00:08.344Z,1002.67
2017-09-18T06:01:08.338Z,1002.66
2017-09-18T06:02:08.332Z,1002.63
2017-09-18T06:03:08.326Z,1002.63
2017-09-18T06:04:08.319Z,1002.62
2017-09-18T06:05:08.313Z,1002.64
2017-09-18T06:06:08.307Z,1002.62
2017-09-18T06:07:08.301Z,1002.66
2017-09-18T06:08:08.296Z,1002.65
2017-09-18T06:09:08.292Z,1002.65
2017-09-18T06:10:08.309Z,1002.67
2017-09-18T06:11:08.276Z,1002.65
2017-09-18T06:12:08.270Z,1002.67
2017-09-18T06:13:08.265Z,1002.68
2017-09-18T06:14:08.258Z,1002.66
2017-09-18T06:15:08.252Z,1002.65
2017-09-18T06:16:08.247Z,1002.65
2017-09-18T06:17:08.241Z,1002.65
2017-09-18T06:18:08.235Z,1002.69
2017-09-18T06:19:08.231Z,1002.63
2017-09-18T06:20:08.232Z,1002.68
2017-09-18T06:21:08.217Z,1002.68
2017-09-18T06:22:08.213Z,1002.69
2017-09-18T06:23:08.206Z,1002.62
2017-09-18T06:24:08.201Z,1002.62
2017-09-18T06:25:08.195Z,1002.65
2017-09-18T06:26:08.189Z,1002.61
2017-09-18T06:27:08.182Z,1002.65
2017-09-18T06:28:08.177Z,1002.68
2017-09-18T06:29:08.178Z,1002.66
2017-09-18T06:30:08.164Z,1002.65
2017-09-18T06:31:08.159Z,1002.64
2017-09-18T06:32:08.154Z,1002.69
2017-09-18T06:33:08.147Z,1002.67
2017-09-18T06:34:08.141Z,1002.68
2017-09-18T06:35:08.136Z,1002.64
2017-09-18T06:36:08.132Z,1002.72
2017-09-18T06:37:08.125Z,1002.67
2017-09-18T06:38:08.120Z,1002.69
2017-09-18T06:39:08.113Z,1002.68
2017-09-18T06:40:08.108Z,1002.72
2017-09-18T06:41:08.102Z,1002.69
2017-09-18T06:42:08.096Z,1002.72
2017-09-18T06:43:08.091Z,1002.75
2017-09-18T06:44:08.084Z,1002.77
2017-09-18T06:45:08.078Z,1002.80
2017-09-18T06:46:08.072Z,1002.76
2017-09-18T06:47:08.066Z,1002.76
2017-09-18T06:48:08.061Z,1002.80
2017-09-18T06:49:08.055Z,1002.76
2017-09-18T06:50:08.049Z,1002.77
2017-09-18T06:51:08.044Z,1002.74
2017-09-18T06:52:08.038Z,1002.76
2017-09-18T06:53:08.031Z,1002.77
2017-09-18T06:54:08.026Z,1002.81
2017-09-18T06:55:08.022Z,1002.79
2017-09-18T06:56:08.015Z,1002.84
2017-09-18T06:57:08.010Z,1002.82
2017-09-18T06:58:08.006Z,1002.85
2017-09-18T06:59:08.003Z,1002.84
2017-09-18T07:00:07.992Z,1002.83
2017-09-18T07:01:07.986Z,1002.86
2017-09-18T07:02:07.980Z,1002.85
2017-09-18T07:03:07.977Z,1002.89
2017-09-18T07:04:07.971Z,1002.90
2017-09-18T07:05:07.969Z,1002.91
2017-09-18T07:06:07.958Z,1002.90
2017-09-18T07:07:07.953Z,1002.92
2017-09-18T07:08:07.948Z,1002.94
2017-09-18T07:09:07.942Z,1002.95
2017-09-18T07:10:07.938Z,1002.96
2017-09-18T07:11:07.931Z,1002.96
2017-09-18T07:12:07.927Z,1002.97
2017-09-18T07:13:07.922Z,1002.98
2017-09-18T07:14:07.915Z,1002.97
2017-09-18T07:15:07.910Z,1002.97
2017-09-18T07:16:07.905Z,1002.96
2017-09-18T07:17:07.898Z,1003.00
2017-09-18T07:18:07.895Z,1003.00
2017-09-18T07:19:07.889Z,1002.96
2017-09-18T07:20:07.884Z,1002.97
2017-09-18T07:21:07.881Z,1003.00
2017-09-18T07:22:07.875Z,1003.04
2017-09-18T07:23:07.870Z,1003.00
2017-09-18T07:24:07.864Z,1003.00
2017-09-18T07:25:07.860Z,1002.96
2017-09-18T07:26:07.855Z,1003.00
2017-09-18T07:27:07.850Z,1003.00
2017-09-18T07:28:07.844Z,1003.02
2017-09-18T07:29:07.840Z,1003.04
2017-09-18T07:30:07.834Z,1002.99
2017-09-18T07:31:07.830Z,1003.05
2017-09-18T07:32:07.826Z,1003.07
2017-09-18T07:33:07.820Z,1003.07
2017-09-18T07:34:07.816Z,1003.07
2017-09-18T07:35:07.813Z,1003.06
2017-09-18T07:36:07.806Z,1003.06
2017-09-18T07:37:07.801Z,1003.12
2017-09-18T07:38:07.796Z,1003.09
2017-09-18T07:39:07.791Z,1003.08
2017-09-18T07:40:07.787Z,1003.09
2017-09-18T07:41:07.780Z,1003.03
2017-09-18T07:42:07.778Z,1003.07
2017-09-18T07:43:07.773Z,1003.08
2017-09-18T07:44:07.768Z,1003.04
2017-09-18T07:45:07.761Z,1003.09
2017-09-18T07:46:07.756Z,1003.08
2017-09-18T07:47:07.750Z,1003.06
2017-09-18T07:48:07.746Z,1003.11
2017-09-18T07:49:07.740Z,1003.12
2017-09-18T07:50:07.738Z,1003.09
2017-09-18T07:51:07.732Z,1003.11
2017-09-18T07:52:07.727Z,1003.14
2017-09-18T07:53:07.721Z,1003.18
2017-09-18T07:54:07.716Z,1003.16
2017-09-18T07:55:07.711Z,1003.17
2017-09-18T07:56:07.706Z,1003.16
2017-09-18T07:57:07.702Z,1003.21
2017-09-18T07:58:07.696Z,1003.22
2017-09-18T07:59:07.691Z,1003.19
2017-09-18T08:00:07.686Z,1003.17
2017-09-18T08:01:07.680Z,1003.21
2017-09-18T08:02:07.675Z,1003.18
2017-09-18T08:03:07.670Z,1003.18
2017-09-18T08:04:07.667Z,1003.17
2017-09-18T08:05:07.659Z,1003.17
2017-09-18T08:06:07.655Z,1003.15
2017-09-18T08:07:07.649Z,1003.15
2017-09-18T08:08:07.643Z,1003.14
2017-09-18T08:09:07.638Z,1003.15
2017-09-18T08:10:07.635Z,1003.15
2017-09-18T08:11:07.630Z,1003.16
2017-09-18T08:12:07.626Z,1003.20
2017-09-18T08:13:07.620Z,1003.20
2017-09-18T08:14:07.614Z,1003.18
2017-09-18T08:15:07.608Z,1003.17
2017-09-18T08:16:07.604Z,1003.15
2017-09-18T08:17:07.598Z,1003.14
2017-09-18T08:18:07.593Z,1003.18
2017-09-18T08:19:07.588Z,1003.13
2017-09-18T08:20:07.581Z,1003.15
2017-09-18T08:21:07.577Z,1003.16
2017-09-18T08:22:07.572Z,1003.14
2017-09-18T08:23:07.567Z,1003.15
2017-09-18T08:24:07.560Z,1003.16
2017-09-18T08:25:07.555Z,1003.21
2017-09-18T08:26:07.552Z,1003.20
2017-09-18T08:27:07.546Z,1003.13
2017-09-18T08:28:07.541Z,1003.13
2017-09-18T08:29:07.534Z,1003.13
2017-09-18T08:30:07.530Z,1003.13
2017-09-18T08:31:07.523Z,1003.11
2017-09-18T08:32:07.520Z,1003.12
2017-09-18T08:33:07.514Z,1003.19
2017-09-18T08:34:07.509Z,1003.13
2017-09-18T08:35:07.505Z,1003.12
2017-09-18T08:36:07.498Z,1003.10
2017-09-18T08:37:07.492Z,1003.11
2017-09-18T08:38:07.488Z,1003.14
2017-09-18T08:39:07.482Z,1003.12
2017-09-18T08:40:07.477Z,1003.10
2017-09-18T08:41:07.471Z,1003.09
2017-09-18T08:42:07.467Z,1003.10
2017-09-18T08:43:07.461Z,1003.09
2017-09-18T08:44:07.456Z,1003.14
2017-09-18T08:45:07.448Z,1003.14
2017-09-18T08:46:07.446Z,1003.18
2017-09-18T08:47:07.440Z,1003.16
2017-09-18T08:48:07.436Z,1003.15
2017-09-18T08:49:07.430Z,1003.19
2017-09-18T08:50:07.424Z,1003.18
2017-09-18T08:51:07.418Z,1003.17
2017-09-18T08:52:07.412Z,1003.23
2017-09-18T08:53:07.408Z,1003.23
2017-09-18T08:54:07.404Z,1003.25
2017-09-18T08:55:07.399Z,1003.25
2017-09-18T08:56:07.393Z,1003.26
2017-09-18T08:57:07.387Z,1003.25
2017-09-18T08:58:07.383Z,1003.25
2017-09-18T08:59:07.377Z,1003.24
2017-09-18T09:00:07.374Z,1003.25
2017-09-18T09:01:07.368Z,1003.30
2017-09-18T09:02:07.363Z,1003.29
2017-09-18T09:03:07.362Z,1003.31
2017-09-18T09:04:07.352Z,1003.31
2017-09-18T09:05:07.347Z,1003.35
2017-09-18T09:06:07.344Z,1003.32
2017-09-18T09:07:07.340Z,1003.29
2017-09-18T09:08:07.336Z,1003.31
2017-09-18T09:09:07.330Z,1003.31
2017-09-18T09:10:07.325Z,1003.32
2017-09-18T09:11:07.322Z,1003.32
2017-09-18T09:12:07.315Z,1003.35
2017-09-18T09:13:07.310Z,1003.31
2017-09-18T09:14:07.304Z,1003.34
2017-09-18T09:15:07.301Z,1003.32
2017-09-18T09:16:07.297Z,1003.31
2017-09-18T09:17:07.292Z,1003.33
2017-09-18T09:18:07.288Z,1003.31
2017-09-18T09:19:07.283Z,1003.35
2017-09-18T09:20:07.279Z,1003.32
2017-09-18T09:21:07.273Z,1003.37
2017-09-18T09:22:07.268Z,1003.32
2017-09-18T09:23:07.265Z,1003.28
2017-09-18T09:24:07.262Z,1003.34
2017-09-18T09:25:07.256Z,1003.33
2017-09-18T09:26:07.257Z,1003.30
2017-09-18T09:27:07.248Z,1003.31
2017-09-18T09:28:07.244Z,1003.29
2017-09-18T09:29:07.243Z,1003.35
2017-09-18T09:30:07.235Z,1003.37
2017-09-18T09:31:07.232Z,1003.37
2017-09-18T09:32:07.227Z,1003.39
2017-09-18T09:33:07.223Z,1003.39
2017-09-18T09:34:07.219Z,1003.39
2017-09-18T09:35:07.215Z,1003.42
2017-09-18T09:36:07.211Z,1003.37
2017-09-18T09:37:07.209Z,1003.41
2017-09-18T09:38:07.202Z,1003.44
2017-09-18T09:39:07.198Z,1003.43
2017-09-18T09:40:07.194Z,1003.44
2017-09-18T09:41:07.189Z,1003.40
2017-09-18T09:42:07.186Z,1003.38
2017-09-18T09:43:07.182Z,1003.36
2017-09-18T09:44:07.178Z,1003.37
2017-09-18T09:45:07.173Z,1003.37
2017-09-18T09:46:07.202Z,1003.35
2017-09-18T09:47:07.166Z,1003.39
2017-09-18T09:48:07.162Z,1003.41
2017-09-18T09:49:07.158Z,1003.35
2017-09-18T09:50:07.155Z,1003.36
2017-09-18T09:51:07.150Z,1003.37
2017-09-18T09:52:07.145Z,1003.36
2017-09-18T09:53:07.141Z,1003.37
2017-09-18T09:54:07.137Z,1003.36
2017-09-18T09:55:07.133Z,1003.33
2017-09-18T09:56:07.129Z,1003.37
2017-09-18T09:57:07.125Z,1003.33
2017-09-18T09:58:07.121Z,1003.34
2017-09-18T09:59:07.123Z,1003.38
2017-09-18T10:00:07.115Z,1003.39
2017-09-18T10:01:07.109Z,1003.36
2017-09-18T10:02:07.106Z,1003.36
2017-09-18T10:03:07.102Z,1003.35
2017-09-18T10:04:07.099Z,1003.32
2017-09-18T10:05:07.094Z,1003.36
2017-09-18T10:06:07.091Z,1003.33
2017-09-18T10:07:07.086Z,1003.37
2017-09-18T10:08:07.084Z,1003.34
2017-09-18T10:09:07.079Z,1003.35
2017-09-18T10:10:07.078Z,1003.35
2017-09-18T10:11:07.071Z,1003.42
2017-09-18T10:12:07.068Z,1003.40
2017-09-18T10:13:07.062Z,1003.40
2017-09-18T10:14:07.064Z,1003.42
2017-09-18T10:15:07.057Z,1003.48
2017-09-18T10:16:07.053Z,1003.48
2017-09-18T10:17:07.050Z,1003.52
2017-09-18T10:18:07.077Z,1003.50
2017-09-18T10:19:07.041Z,1003.52
2017-09-18T10:20:07.037Z,1003.49
2017-09-18T10:21:07.033Z,1003.55
2017-09-18T10:22:07.030Z,1003.55
2017-09-18T10:23:07.027Z,1003.52
2017-09-18T10:24:07.024Z,1003.56
2017-09-18T10:25:07.019Z,1003.56
2017-09-18T10:26:07.017Z,1003.57
2017-09-18T10:27:07.012Z,1003.62
2017-09-18T10:28:07.008Z,1003.61
2017-09-18T10:29:07.004Z,1003.62
2017-09-18T10:30:07.001Z,1003.64
2017-09-18T10:31:06.999Z,1003.66
2017-09-18T10:32:06.995Z,1003.67
2017-09-18T10:33:06.990Z,1003.79
2017-09-18T10:34:06.986Z,1003.68
2017-09-18T10:35:06.984Z,1003.64
2017-09-18T10:36:06.982Z,1003.62
2017-09-18T10:37:06.977Z,1003.62
2017-09-18T10:38:06.975Z,1003.60
2017-09-18T10:39:06.971Z,1003.57
2017-09-18T10:40:06.968Z,1003.60
2017-09-18T10:41:06.966Z,1003.59
2017-09-18T10:42:06.962Z,1003.58
2017-09-18T10:43:06.959Z,1003.56
2017-09-18T10:44:06.956Z,1003.56
2017-09-18T10:45:06.954Z,1003.59
2017-09-18T10:46:06.949Z,1003.62
2017-09-18T10:47:06.946Z,1003.72
2017-09-18T10:48:06.943Z,1003.67
2017-09-18T10:49:06.940Z,1003.66
2017-09-18T10:50:06.936Z,1003.71
2017-09-18T10:51:06.934Z,1003.68
2017-09-18T10:52:06.931Z,1003.70
2017-09-18T10:53:06.927Z,1003.69
2017-09-18T10:54:06.926Z,1003.68
2017-09-18T10:55:06.923Z,1003.68
2017-09-18T10:56:06.923Z,1003.70
2017-09-18T10:57:06.917Z,1003.74
2017-09-18T10:58:06.914Z,1003.69
2017-09-18T10:59:06.913Z,1003.69
2017-09-18T11:00:06.910Z,1003.68
2017-09-18T11:01:06.907Z,1003.66
2017-09-18T11:02:06.903Z,1003.62
2017-09-18T11:03:06.902Z,1003.65
2017-09-18T11:04:06.900Z,1003.62
2017-09-18T11:05:06.897Z,1003.64
2017-09-18T11:06:06.895Z,1003.62
2017-09-18T11:07:06.893Z,1003.59
2017-09-18T11:08:06.891Z,1003.63
2017-09-18T11:09:06.887Z,1003.63
2017-09-18T11:10:06.885Z,1003.63
2017-09-18T11:11:06.883Z,1003.65
2017-09-18T11:12:06.880Z,1003.63
2017-09-18T11:13:06.876Z,1003.64
2017-09-18T11:14:06.875Z,1003.67
2017-09-18T11:15:06.875Z,1003.68
2017-09-18T11:16:06.871Z,1003.65
2017-09-18T11:17:06.868Z,1003.70
2017-09-18T11:18:06.865Z,1003.69
2017-09-18T11:19:06.864Z,1003.67
2017-09-18T11:20:06.861Z,1003.71
2017-09-18T11:21:06.858Z,1003.76
2017-09-18T11:22:06.855Z,1003.79
2017-09-18T11:23:06.853Z,1003.78
2017-09-18T11:24:06.850Z,1003.74
2017-09-18T11:25:06.848Z,1003.74
2017-09-18T11:26:06.846Z,1003.72
2017-09-18T11:27:06.848Z,1003.74
2017-09-18T11:28:06.847Z,1003.71
2017-09-18T11:29:06.840Z,1003.66
2017-09-18T11:30:06.839Z,1003.71
2017-09-18T11:31:06.837Z,1003.72
2017-09-18T11:32:06.834Z,1003.71
2017-09-18T11:33:06.832Z,1003.74
2017-09-18T11:34:06.837Z,1003.69
2017-09-18T11:35:06.829Z,1003.71
2017-09-18T11:36:06.827Z,1003.68
2017-09-18T11:37:06.825Z,1003.64
2017-09-18T11:38:06.823Z,1003.67
2017-09-18T11:39:06.822Z,1003.64
2017-09-18T11:40:06.820Z,1003.66
2017-09-18T11:41:06.818Z,1003.63
2017-09-18T11:42:06.817Z,1003.67
2017-09-18T11:43:06.815Z,1003.65
2017-09-18T11:44:06.815Z,1003.62
2017-09-18T11:45:06.812Z,1003.65
2017-09-18T11:46:06.809Z,1003.58
2017-09-18T11:47:06.809Z,1003.61
2017-09-18T11:48:06.806Z,1003.59
2017-09-18T11:49:06.804Z,1003.55
2017-09-18T11:50:06.804Z,1003.57
2017-09-18T11:51:06.803Z,1003.55
2017-09-18T11:52:06.802Z,1003.59
2017-09-18T11:53:06.798Z,1003.59
2017-09-18T11:54:06.799Z,1003.59
2017-09-18T11:55:06.796Z,1003.59
2017-09-18T11:56:06.798Z,1003.58
2017-09-18T11:57:06.792Z,1003.64
2017-09-18T11:58:06.791Z,1003.61
2017-09-18T11:59:06.789Z,1003.64
2017-09-18T12:00:06.791Z,1003.64
2017-09-18T12:01:06.787Z,1003.65
2017-09-18T12:02:06.784Z,1003.63
2017-09-18T12:03:06.783Z,1003.68
2017-09-18T12:04:06.783Z,1003.65
2017-09-18T12:05:06.780Z,1003.64